createdAt,value
2019-05-28T00:01:12.389Z,9.47
2019-05-28T00:03:44.108Z,8.57
2019-05-28T00:06:15.827Z,9.10
2019-05-28T00:08:47.536Z,9.97
2019-05-28T00:11:19.272Z,9.17
2019-05-28T00:13:51.142Z,8.60
2019-05-28T00:16:22.945Z,8.23
2019-05-28T00:18:54.748Z,7.50
2019-05-28T00:21:26.575Z,8.90
2019-05-28T00:23:58.276Z,8.97
2019-05-28T00:26:30.008Z,7.87
2019-05-28T00:29:01.713Z,9.50
2019-05-28T00:31:33.569Z,8.60
2019-05-28T00:34:05.384Z,8.03
2019-05-28T00:36:37.101Z,8.87
2019-05-28T00:39:08.796Z,9.10
2019-05-28T00:41:40.620Z,9.33
2019-05-28T00:44:12.410Z,9.43
2019-05-28T00:46:44.147Z,9.17
2019-05-28T00:49:16.061Z,9.27
2019-05-28T00:51:48.594Z,10.60
2019-05-28T00:54:20.485Z,9.57
2019-05-28T00:56:53.453Z,10.50
2019-05-28T00:59:26.868Z,11.50
2019-05-28T01:01:58.588Z,12.50
2019-05-28T01:04:30.383Z,12.23
2019-05-28T01:07:02.162Z,9.93
2019-05-28T01:09:34.092Z,11.27
2019-05-28T01:12:05.917Z,10.10
2019-05-28T01:14:37.620Z,10.47
2019-05-28T01:17:09.353Z,10.67
2019-05-28T01:19:41.149Z,10.17
2019-05-28T01:22:13.068Z,9.07
2019-05-28T01:24:44.761Z,9.50
2019-05-28T01:27:16.481Z,11.37
2019-05-28T01:29:48.174Z,11.13
2019-05-28T01:32:19.905Z,11.03
2019-05-28T01:34:51.601Z,11.83
2019-05-28T01:37:23.384Z,12.47
2019-05-28T01:39:55.127Z,12.53
2019-05-28T01:42:26.901Z,12.97
2019-05-28T01:44:58.630Z,12.80
2019-05-28T01:47:30.372Z,13.40
2019-05-28T01:50:02.404Z,12.77
2019-05-28T01:52:34.148Z,12.87
2019-05-28T01:55:06.101Z,12.33
2019-05-28T01:57:37.827Z,10.77
2019-05-28T02:00:10.128Z,10.97
2019-05-28T02:02:41.866Z,10.47
2019-05-28T02:05:14.272Z,11.47
2019-05-28T02:07:45.989Z,11.07
2019-05-28T02:10:17.889Z,12.63
2019-05-28T02:12:49.774Z,11.23
2019-05-28T02:15:22.208Z,11.37
2019-05-28T02:17:53.982Z,12.20
2019-05-28T02:20:25.954Z,11.87
2019-05-28T02:22:57.801Z,12.10
2019-05-28T02:25:29.609Z,11.77
2019-05-28T02:28:01.336Z,11.77
2019-05-28T02:30:33.237Z,10.80
2019-05-28T02:33:04.953Z,9.97
2019-05-28T02:35:36.722Z,9.77
2019-05-28T02:38:08.448Z,9.40
2019-05-28T02:40:40.157Z,9.60
2019-05-28T02:43:11.968Z,8.67
2019-05-28T02:45:43.667Z,8.77
2019-05-28T02:48:15.392Z,8.47
2019-05-28T02:50:58.466Z,8.67
2019-05-28T02:53:31.448Z,9.20
2019-05-28T02:56:04.322Z,8.70
2019-05-28T02:58:36.132Z,8.00
2019-05-28T03:01:07.988Z,8.20
2019-05-28T03:03:40.884Z,8.50
2019-05-28T03:06:12.804Z,7.90
2019-05-28T03:08:47.138Z,8.00
2019-05-28T03:11:18.925Z,7.33
2019-05-28T03:13:50.639Z,7.17
2019-05-28T03:16:25.764Z,7.73
2019-05-28T03:18:58.995Z,6.67
2019-05-28T03:21:32.795Z,7.30
2019-05-28T03:24:05.241Z,7.40
2019-05-28T03:26:37.036Z,8.67
2019-05-28T03:29:08.879Z,5.90
2019-05-28T03:31:40.780Z,6.10
2019-05-28T03:34:12.772Z,6.00
2019-05-28T03:36:45.911Z,6.30
2019-05-28T03:39:17.893Z,5.03
2019-05-28T03:41:49.734Z,5.57
2019-05-28T03:44:21.571Z,5.57
2019-05-28T03:46:53.552Z,5.50
2019-05-28T03:49:25.510Z,5.63
2019-05-28T03:51:57.343Z,5.60
2019-05-28T03:54:29.230Z,6.67
2019-05-28T03:57:01.451Z,5.90
2019-05-28T03:59:33.451Z,5.80
2019-05-28T04:02:05.262Z,5.47
2019-05-28T04:04:36.988Z,5.87
2019-05-28T04:07:08.683Z,5.70
2019-05-28T04:09:40.396Z,5.83
2019-05-28T04:12:12.143Z,5.23
2019-05-28T04:14:43.890Z,6.07
2019-05-28T04:17:15.593Z,5.50
2019-05-28T04:19:47.338Z,5.43
2019-05-28T04:22:19.055Z,4.77
2019-05-28T04:24:50.931Z,5.00
2019-05-28T04:27:22.858Z,4.73
2019-05-28T04:29:54.643Z,4.60
2019-05-28T04:32:39.932Z,4.80
2019-05-28T04:35:00.583Z,4.77
2019-05-28T04:37:32.381Z,5.20
2019-05-28T04:40:04.734Z,4.10
2019-05-28T04:42:36.545Z,5.03
2019-05-28T04:45:08.949Z,4.70
2019-05-28T04:47:40.677Z,4.80
2019-05-28T04:50:13.335Z,4.43
2019-05-28T04:52:45.147Z,5.30
2019-05-28T04:55:17.062Z,5.43
2019-05-28T04:57:48.768Z,4.37
2019-05-28T05:00:21.210Z,4.47
2019-05-28T05:02:59.419Z,3.87
2019-05-28T05:05:26.670Z,3.97
2019-05-28T05:07:58.380Z,4.00
2019-05-28T05:10:30.161Z,3.43
2019-05-28T05:13:02.115Z,4.27
2019-05-28T05:15:33.950Z,3.73
2019-05-28T05:18:05.706Z,4.00
2019-05-28T05:20:37.526Z,4.90
2019-05-28T05:23:09.241Z,5.43
2019-05-28T05:25:40.964Z,4.87
2019-05-28T05:28:12.677Z,3.93
2019-05-28T05:30:44.525Z,4.80
2019-05-28T05:33:20.512Z,4.70
2019-05-28T05:35:50.182Z,3.50
2019-05-28T05:38:21.992Z,5.53
2019-05-28T05:40:53.733Z,3.60
2019-05-28T05:43:25.496Z,3.70
2019-05-28T05:45:57.300Z,3.60
2019-05-28T05:48:29.027Z,3.77
2019-05-28T05:51:00.862Z,2.60
2019-05-28T05:53:32.667Z,4.57
2019-05-28T05:56:04.604Z,3.20
2019-05-28T05:58:37.316Z,3.37
2019-05-28T06:01:09.141Z,3.00
2019-05-28T06:03:41.984Z,2.93
2019-05-28T06:06:14.089Z,2.80
2019-05-28T06:08:45.904Z,3.40
2019-05-28T06:11:17.636Z,2.80
2019-05-28T06:13:49.450Z,3.17
2019-05-28T06:16:21.169Z,3.10
2019-05-28T06:18:53.624Z,3.20
2019-05-28T06:21:25.431Z,3.00
2019-05-28T06:23:57.136Z,3.23
2019-05-28T06:26:28.964Z,2.60
2019-05-28T06:29:00.711Z,3.43
2019-05-28T06:31:32.543Z,2.90
2019-05-28T06:34:04.342Z,2.50
2019-05-28T06:36:36.181Z,2.73
2019-05-28T06:39:07.982Z,3.30
2019-05-28T06:41:39.790Z,3.10
2019-05-28T06:44:11.488Z,2.80
2019-05-28T06:46:43.211Z,3.03
2019-05-28T06:49:15.145Z,2.70
2019-05-28T06:51:46.992Z,3.33
2019-05-28T06:54:18.826Z,2.92
2019-05-28T06:56:50.555Z,2.95
2019-05-28T06:59:22.356Z,2.80
2019-05-28T07:01:54.101Z,2.30
2019-05-28T07:04:32.647Z,2.20
2019-05-28T07:06:59.504Z,2.80
2019-05-28T07:09:31.315Z,3.10
2019-05-28T07:12:03.140Z,2.55
2019-05-28T07:14:34.856Z,3.20
2019-05-28T07:17:06.680Z,2.55
2019-05-28T07:19:38.473Z,2.62
2019-05-28T07:22:10.197Z,3.00
2019-05-28T07:24:41.929Z,3.02
2019-05-28T07:27:13.644Z,2.65
2019-05-28T07:29:45.452Z,2.70
2019-05-28T07:32:17.286Z,2.58
2019-05-28T07:34:49.092Z,3.08
2019-05-28T07:37:20.918Z,2.35
2019-05-28T07:39:52.637Z,3.00
2019-05-28T07:42:32.697Z,2.75
2019-05-28T07:44:57.970Z,2.27
2019-05-28T07:47:29.782Z,3.22
2019-05-28T07:50:01.721Z,2.50
2019-05-28T07:52:33.568Z,3.27
2019-05-28T07:55:05.838Z,2.70
2019-05-28T07:57:37.657Z,3.47
2019-05-28T08:00:09.867Z,3.23
2019-05-28T08:02:41.593Z,3.07
2019-05-28T08:05:17.076Z,3.00
2019-05-28T08:07:47.025Z,2.87
2019-05-28T08:10:18.965Z,2.93
2019-05-28T08:12:50.810Z,2.90
2019-05-28T08:15:22.677Z,2.63
2019-05-28T08:17:54.492Z,3.50
2019-05-28T08:20:26.308Z,3.07
2019-05-28T08:22:58.041Z,3.03
2019-05-28T08:25:46.153Z,3.57
2019-05-28T08:28:18.597Z,3.03
2019-05-28T08:30:37.213Z,3.50
2019-05-28T08:33:09.324Z,3.17
2019-05-28T08:35:41.376Z,2.50
2019-05-28T08:38:13.188Z,2.57
2019-05-28T08:40:44.905Z,2.77
2019-05-28T08:43:16.782Z,3.20
2019-05-28T08:45:48.669Z,3.13
2019-05-28T08:48:20.432Z,2.43
2019-05-28T08:50:52.357Z,2.77
2019-05-28T08:53:24.269Z,4.07
2019-05-28T08:55:56.048Z,2.37
2019-05-28T08:58:27.862Z,2.27
2019-05-28T09:00:59.780Z,2.97
2019-05-28T09:03:31.769Z,3.00
2019-05-28T09:06:03.596Z,2.93
2019-05-28T09:08:39.288Z,1.87
2019-05-28T09:11:09.332Z,2.33
2019-05-28T09:13:41.300Z,4.03
2019-05-28T09:16:12.999Z,2.30
2019-05-28T09:18:44.884Z,2.43
2019-05-28T09:21:16.726Z,2.50
2019-05-28T09:23:48.461Z,2.47
2019-05-28T09:26:20.261Z,2.40
2019-05-28T09:28:52.039Z,3.42
2019-05-28T09:31:23.889Z,3.10
2019-05-28T09:33:55.660Z,3.12
2019-05-28T09:36:27.406Z,3.33
2019-05-28T09:38:59.148Z,3.25
2019-05-28T09:41:30.847Z,3.17
2019-05-28T09:44:03.033Z,3.30
2019-05-28T09:46:34.757Z,3.50
2019-05-28T09:49:06.504Z,3.27
2019-05-28T09:51:38.205Z,2.22
2019-05-28T09:54:09.912Z,3.62
2019-05-28T09:56:41.717Z,2.70
2019-05-28T09:59:13.624Z,2.85
2019-05-28T10:01:45.827Z,2.75
2019-05-28T10:04:17.636Z,2.02
2019-05-28T10:06:49.362Z,2.92
2019-05-28T10:09:21.121Z,2.62
2019-05-28T10:11:52.946Z,3.17
2019-05-28T10:14:25.097Z,2.98
2019-05-28T10:16:57.011Z,2.65
2019-05-28T10:19:28.838Z,2.83
2019-05-28T10:22:00.718Z,2.37
2019-05-28T10:24:32.469Z,2.77
2019-05-28T10:27:04.296Z,2.83
2019-05-28T10:29:36.108Z,2.77
2019-05-28T10:32:07.916Z,3.08
2019-05-28T10:34:39.666Z,2.40
2019-05-28T10:37:11.467Z,2.72
2019-05-28T10:39:43.210Z,2.42
2019-05-28T10:42:15.032Z,2.52
2019-05-28T10:44:46.970Z,2.08
2019-05-28T10:47:18.882Z,2.35
2019-05-28T10:49:51.176Z,2.30
2019-05-28T10:52:23.253Z,2.45
2019-05-28T10:54:54.976Z,2.42
2019-05-28T10:57:26.700Z,2.65
2019-05-28T10:59:58.417Z,2.80
2019-05-28T11:02:30.325Z,2.15
2019-05-28T11:05:02.269Z,2.47
2019-05-28T11:07:33.961Z,1.82
2019-05-28T11:10:23.036Z,2.62
2019-05-28T11:12:41.719Z,2.30
2019-05-28T11:15:15.636Z,2.42
2019-05-28T11:17:47.451Z,1.90
2019-05-28T11:20:20.461Z,2.55
2019-05-28T11:22:52.307Z,2.40
2019-05-28T11:25:24.334Z,1.98
2019-05-28T11:27:56.142Z,1.87
2019-05-28T11:30:28.115Z,3.37
2019-05-28T11:32:59.852Z,2.70
2019-05-28T11:35:31.681Z,1.98
2019-05-28T11:38:03.909Z,7.10
2019-05-28T11:40:35.616Z,2.22
2019-05-28T11:43:07.417Z,2.00
2019-05-28T11:45:39.132Z,1.85
2019-05-28T11:48:10.859Z,1.85
2019-05-28T11:50:42.685Z,1.37
2019-05-28T11:53:14.490Z,2.50
2019-05-28T11:55:46.292Z,1.98
2019-05-28T11:58:18.090Z,1.72
2019-05-28T12:00:49.831Z,1.35
2019-05-28T12:03:21.533Z,1.60
2019-05-28T12:05:53.241Z,1.85
2019-05-28T12:08:24.948Z,1.42
2019-05-28T12:10:56.664Z,1.55
2019-05-28T12:13:28.386Z,1.60
2019-05-28T12:16:00.220Z,1.15
2019-05-28T12:18:32.030Z,1.57
2019-05-28T12:21:03.953Z,1.25
2019-05-28T12:23:35.757Z,1.10
2019-05-28T12:26:07.524Z,2.00
2019-05-28T12:28:39.283Z,0.90
2019-05-28T12:31:11.006Z,1.32
2019-05-28T12:33:42.809Z,2.55
2019-05-28T12:36:14.539Z,1.62
2019-05-28T12:38:46.240Z,1.10
2019-05-28T12:41:17.956Z,1.20
2019-05-28T12:43:49.938Z,1.35
2019-05-28T12:46:21.805Z,1.37
2019-05-28T12:48:53.702Z,1.30
2019-05-28T12:51:25.437Z,0.93
2019-05-28T12:53:57.236Z,1.35
2019-05-28T12:56:28.974Z,1.02
2019-05-28T12:59:00.680Z,1.17
2019-05-28T13:01:32.564Z,1.45
2019-05-28T13:04:04.498Z,2.12
2019-05-28T13:06:36.317Z,1.80
2019-05-28T13:09:08.124Z,1.27
2019-05-28T13:11:39.844Z,1.20
2019-05-28T13:14:11.579Z,1.22
2019-05-28T13:16:43.393Z,1.40
2019-05-28T13:19:15.197Z,1.22
2019-05-28T13:21:47.006Z,1.42
2019-05-28T13:24:18.701Z,1.25
2019-05-28T13:26:50.572Z,1.52
2019-05-28T13:29:22.342Z,1.75
2019-05-28T13:31:54.131Z,1.07
2019-05-28T13:34:25.908Z,2.02
2019-05-28T13:36:57.642Z,1.22
2019-05-28T13:39:29.373Z,1.40
2019-05-28T13:42:01.225Z,1.75
2019-05-28T13:44:33.133Z,1.47
2019-05-28T13:47:04.965Z,1.45
2019-05-28T13:49:36.711Z,1.20
2019-05-28T13:52:11.936Z,1.67
2019-05-28T13:54:42.141Z,1.47
2019-05-28T13:57:13.961Z,1.22
2019-05-28T13:59:45.680Z,2.37
2019-05-28T14:02:17.415Z,1.55
2019-05-28T14:04:49.202Z,2.25
2019-05-28T14:07:20.938Z,1.95
2019-05-28T14:09:52.754Z,1.15
2019-05-28T14:12:24.480Z,1.65
2019-05-28T14:14:56.781Z,1.80
2019-05-28T14:17:28.635Z,1.70
2019-05-28T14:20:00.413Z,1.90
2019-05-28T14:22:34.316Z,1.07
2019-05-28T14:25:05.990Z,1.40
2019-05-28T14:27:37.883Z,1.20
2019-05-28T14:30:10.363Z,1.40
2019-05-28T14:32:42.279Z,0.93
2019-05-28T14:35:14.893Z,1.37
2019-05-28T14:37:46.731Z,1.40
2019-05-28T14:40:18.545Z,1.10
2019-05-28T14:42:50.386Z,1.30
2019-05-28T14:45:23.013Z,1.42
2019-05-28T14:47:55.174Z,0.97
2019-05-28T14:50:26.900Z,1.20
2019-05-28T14:52:58.724Z,0.90
2019-05-28T14:55:30.527Z,1.47
2019-05-28T14:58:05.212Z,0.90
2019-05-28T15:00:35.977Z,1.50
2019-05-28T15:03:07.788Z,0.97
2019-05-28T15:05:39.604Z,1.17
2019-05-28T15:08:11.337Z,1.80
2019-05-28T15:10:43.141Z,1.10
2019-05-28T15:13:14.901Z,1.03
2019-05-28T15:15:46.908Z,1.17
2019-05-28T15:18:18.653Z,1.50
2019-05-28T15:20:50.437Z,1.13
2019-05-28T15:23:22.197Z,1.57
2019-05-28T15:25:53.899Z,1.40
2019-05-28T15:28:25.709Z,1.30
2019-05-28T15:30:57.608Z,1.00
2019-05-28T15:33:29.413Z,1.33
2019-05-28T15:36:01.126Z,0.93
2019-05-28T15:38:32.846Z,1.27
2019-05-28T15:41:04.577Z,0.97
2019-05-28T15:43:36.292Z,1.13
2019-05-28T15:46:08.005Z,1.40
2019-05-28T15:48:39.733Z,0.90
2019-05-28T15:51:11.588Z,1.10
2019-05-28T15:53:43.399Z,0.87
2019-05-28T15:56:15.202Z,1.07
2019-05-28T15:58:47.030Z,0.80
2019-05-28T16:01:18.783Z,1.50
2019-05-28T16:03:50.588Z,1.33
2019-05-28T16:06:22.293Z,1.13
2019-05-28T16:08:54.107Z,1.33
2019-05-28T16:11:25.820Z,1.27
2019-05-28T16:13:57.549Z,1.27
2019-05-28T16:16:29.358Z,1.33
2019-05-28T16:19:01.167Z,1.07
2019-05-28T16:21:32.885Z,1.20
2019-05-28T16:24:04.797Z,1.00
2019-05-28T16:26:36.497Z,1.07
2019-05-28T16:29:08.341Z,0.83
2019-05-28T16:31:40.044Z,1.27
2019-05-28T16:34:11.894Z,1.07
2019-05-28T16:36:43.588Z,0.83
2019-05-28T16:39:15.431Z,0.83
2019-05-28T16:41:47.333Z,0.70
2019-05-28T16:44:19.248Z,0.60
2019-05-28T16:47:14.375Z,1.53
2019-05-28T16:49:24.728Z,0.70
2019-05-28T16:51:56.525Z,1.07
2019-05-28T16:54:28.349Z,0.80
2019-05-28T16:57:00.053Z,1.40
2019-05-28T16:59:31.808Z,1.27
2019-05-28T17:02:03.631Z,0.93
2019-05-28T17:04:35.364Z,1.10
2019-05-28T17:07:07.071Z,1.60
2019-05-28T17:09:38.777Z,1.20
2019-05-28T17:12:10.574Z,1.07
2019-05-28T17:14:42.301Z,1.00
2019-05-28T17:17:14.110Z,1.53
2019-05-28T17:19:45.825Z,1.10
2019-05-28T17:22:17.533Z,1.33
2019-05-28T17:24:49.282Z,0.97
2019-05-28T17:27:21.094Z,1.73
2019-05-28T17:29:52.917Z,1.40
2019-05-28T17:32:24.734Z,0.87
2019-05-28T17:34:56.570Z,1.30
2019-05-28T17:37:28.414Z,0.90
2019-05-28T17:40:00.243Z,1.73
2019-05-28T17:42:32.215Z,1.00
2019-05-28T17:45:04.783Z,0.80
2019-05-28T17:47:43.076Z,1.27
2019-05-28T17:50:10.669Z,1.20
2019-05-28T17:52:42.460Z,1.00
2019-05-28T17:55:14.522Z,1.23
2019-05-28T17:57:46.257Z,0.80
2019-05-28T18:00:18.082Z,0.90
2019-05-28T18:02:49.964Z,0.90
2019-05-28T18:05:21.789Z,0.93
2019-05-28T18:07:53.616Z,1.17
2019-05-28T18:10:26.224Z,1.90
2019-05-28T18:12:57.926Z,1.20
2019-05-28T18:15:29.747Z,1.00
2019-05-28T18:18:01.450Z,0.80
2019-05-28T18:20:33.272Z,0.77
2019-05-28T18:23:04.984Z,1.10
2019-05-28T18:25:36.721Z,1.60
2019-05-28T18:28:08.432Z,0.90
2019-05-28T18:30:40.166Z,1.30
2019-05-28T18:33:11.881Z,1.17
2019-05-28T18:35:43.614Z,1.07
2019-05-28T18:38:15.328Z,0.83
2019-05-28T18:40:47.163Z,0.83
2019-05-28T18:43:18.873Z,0.83
2019-05-28T18:45:50.723Z,0.97
2019-05-28T18:48:22.428Z,1.10
2019-05-28T18:50:54.183Z,0.80
2019-05-28T18:53:25.987Z,1.07
2019-05-28T18:55:57.723Z,0.70
2019-05-28T18:58:29.560Z,0.80
2019-05-28T19:01:01.362Z,0.90
2019-05-28T19:03:33.273Z,0.93
2019-05-28T19:06:05.122Z,1.00
2019-05-28T19:08:36.924Z,0.80
2019-05-28T19:11:08.748Z,1.20
2019-05-28T19:13:40.544Z,1.27
2019-05-28T19:16:12.276Z,0.90
2019-05-28T19:18:43.982Z,0.87
2019-05-28T19:21:15.717Z,0.80
2019-05-28T19:23:47.424Z,1.10
2019-05-28T19:26:19.169Z,1.20
2019-05-28T19:28:50.882Z,1.00
2019-05-28T19:31:22.704Z,1.13
2019-05-28T19:33:54.918Z,1.20
2019-05-28T19:36:26.991Z,0.90
2019-05-28T19:38:59.501Z,1.10
2019-05-28T19:41:31.304Z,1.13
2019-05-28T19:44:03.458Z,1.60
2019-05-28T19:46:35.268Z,1.30
2019-05-28T19:49:06.978Z,1.10
2019-05-28T19:51:38.726Z,1.70
2019-05-28T19:54:10.852Z,2.40
2019-05-28T19:56:42.686Z,1.47
2019-05-28T19:59:14.404Z,2.97
2019-05-28T20:01:46.225Z,1.40
2019-05-28T20:04:17.941Z,1.50
2019-05-28T20:06:49.662Z,1.70
2019-05-28T20:09:21.386Z,1.57
2019-05-28T20:12:10.035Z,1.70
2019-05-28T20:14:26.734Z,1.10
2019-05-28T20:16:58.637Z,1.67
2019-05-28T20:19:30.363Z,2.07
2019-05-28T20:22:02.266Z,1.57
2019-05-28T20:24:34.237Z,2.20
2019-05-28T20:27:05.952Z,1.40
2019-05-28T20:29:37.650Z,1.70
2019-05-28T20:32:09.488Z,1.47
2019-05-28T20:34:41.257Z,1.40
2019-05-28T20:37:12.982Z,1.40
2019-05-28T20:39:44.686Z,2.13
2019-05-28T20:42:27.064Z,2.00
2019-05-28T20:44:50.311Z,1.27
2019-05-28T20:47:22.155Z,1.13
2019-05-28T20:49:53.956Z,1.27
2019-05-28T20:52:25.700Z,1.50
2019-05-28T20:54:57.415Z,1.43
2019-05-28T20:57:29.128Z,1.00
2019-05-28T21:00:00.943Z,1.30
2019-05-28T21:02:32.796Z,1.20
2019-05-28T21:05:05.140Z,1.27
2019-05-28T21:07:36.875Z,1.50
2019-05-28T21:10:10.688Z,1.10
2019-05-28T21:12:44.253Z,0.90
2019-05-28T21:15:16.413Z,1.17
2019-05-28T21:17:48.984Z,1.10
2019-05-28T21:20:21.160Z,1.00
2019-05-28T21:22:53.746Z,1.10
2019-05-28T21:25:25.603Z,1.10
2019-05-28T21:27:58.404Z,1.40
2019-05-28T21:30:30.336Z,1.20
2019-05-28T21:33:02.069Z,0.90
2019-05-28T21:35:33.864Z,1.17
2019-05-28T21:38:05.668Z,1.30
2019-05-28T21:40:37.468Z,1.13
2019-05-28T21:43:09.998Z,1.50
2019-05-28T21:45:41.992Z,1.40
2019-05-28T21:48:13.704Z,1.23
2019-05-28T21:50:45.429Z,1.00
2019-05-28T21:53:17.247Z,1.13
2019-05-28T21:55:48.953Z,1.80
2019-05-28T21:58:21.114Z,1.37
2019-05-28T22:00:57.942Z,0.77
2019-05-28T22:03:29.774Z,1.20
2019-05-28T22:06:01.568Z,1.37
2019-05-28T22:08:33.606Z,1.17
2019-05-28T22:11:05.414Z,0.90
2019-05-28T22:13:37.221Z,1.27
2019-05-28T22:16:08.928Z,1.53
2019-05-28T22:18:40.648Z,0.90
2019-05-28T22:21:12.341Z,1.70
2019-05-28T22:23:44.094Z,1.10
2019-05-28T22:26:15.989Z,1.50
2019-05-28T22:28:47.797Z,1.73
2019-05-28T22:31:19.517Z,1.27
2019-05-28T22:33:51.238Z,1.27
2019-05-28T22:36:22.937Z,1.30
2019-05-28T22:39:08.651Z,1.30
2019-05-28T22:41:41.149Z,1.13
2019-05-28T22:44:12.868Z,1.00
2019-05-28T22:46:44.588Z,1.40
2019-05-28T22:49:16.425Z,1.40
2019-05-28T22:51:48.133Z,1.30
2019-05-28T22:54:19.862Z,1.10
2019-05-28T22:56:51.566Z,1.20
2019-05-28T22:59:23.384Z,1.50
2019-05-28T23:01:55.095Z,2.17
2019-05-28T23:04:26.801Z,1.73
2019-05-28T23:06:59.180Z,1.00
2019-05-28T23:09:30.942Z,1.30
2019-05-28T23:12:03.554Z,1.00
2019-05-28T23:14:35.653Z,1.00
2019-05-28T23:17:08.396Z,1.00
2019-05-28T23:19:40.386Z,1.00
2019-05-28T23:22:12.276Z,1.20
2019-05-28T23:24:43.992Z,1.40
2019-05-28T23:27:15.800Z,1.13
2019-05-28T23:29:47.542Z,1.17
2019-05-28T23:32:19.277Z,1.07
2019-05-28T23:34:50.996Z,1.23
2019-05-28T23:37:22.699Z,1.90
2019-05-28T23:39:54.426Z,1.17
2019-05-28T23:42:26.118Z,1.03
2019-05-28T23:44:57.848Z,1.33
2019-05-28T23:47:29.542Z,1.20
2019-05-28T23:50:01.296Z,1.20
2019-05-28T23:52:33.035Z,1.20
2019-05-28T23:55:05.741Z,1.20
2019-05-28T23:57:37.666Z,1.30
